createdAt,value
2019-03-13T00:02:28.881Z,1.93
2019-03-13T00:04:55.218Z,1.70
2019-03-13T00:07:21.663Z,2.20
2019-03-13T00:09:47.912Z,1.90
2019-03-13T00:12:14.359Z,1.80
2019-03-13T00:14:40.693Z,2.00
2019-03-13T00:17:07.167Z,1.80
2019-03-13T00:19:33.423Z,1.70
2019-03-13T00:21:59.896Z,1.20
2019-03-13T00:24:26.321Z,1.13
2019-03-13T00:26:52.606Z,1.30
2019-03-13T00:29:18.865Z,0.90
2019-03-13T00:31:45.289Z,0.90
2019-03-13T00:34:11.579Z,0.90
2019-03-13T00:36:37.821Z,0.83
2019-03-13T00:39:05.072Z,0.87
2019-03-13T00:41:31.291Z,0.90
2019-03-13T00:43:57.511Z,0.90
2019-03-13T00:46:23.866Z,0.93
2019-03-13T00:48:50.295Z,0.80
2019-03-13T00:51:16.672Z,0.90
2019-03-13T00:53:42.958Z,0.80
2019-03-13T00:56:09.386Z,0.73
2019-03-13T00:58:35.600Z,0.83
2019-03-13T01:01:22.011Z,0.80
2019-03-13T01:03:50.151Z,0.90
2019-03-13T01:06:21.045Z,0.83
2019-03-13T01:08:47.272Z,0.77
2019-03-13T01:11:13.420Z,0.80
2019-03-13T01:13:39.773Z,0.80
2019-03-13T01:16:06.368Z,0.80
2019-03-13T01:18:32.681Z,0.87
2019-03-13T01:20:58.826Z,0.90
2019-03-13T01:23:25.090Z,0.77
2019-03-13T01:25:51.367Z,0.80
2019-03-13T01:28:17.612Z,0.80
2019-03-13T01:31:02.370Z,0.80
2019-03-13T01:33:28.568Z,0.90
2019-03-13T01:35:56.690Z,0.90
2019-03-13T01:38:22.848Z,0.80
2019-03-13T01:40:49.040Z,0.90
2019-03-13T01:43:15.379Z,0.80
2019-03-13T01:45:41.747Z,0.90
2019-03-13T01:48:07.884Z,1.00
2019-03-13T01:50:34.017Z,0.90
2019-03-13T01:53:00.483Z,0.87
2019-03-13T01:55:26.737Z,0.90
2019-03-13T01:57:53.047Z,0.80
2019-03-13T02:00:19.517Z,0.90
2019-03-13T02:02:45.773Z,0.90
2019-03-13T02:05:12.231Z,1.10
2019-03-13T02:07:38.483Z,1.00
2019-03-13T02:10:07.891Z,1.10
2019-03-13T02:12:34.169Z,1.20
2019-03-13T02:15:00.517Z,1.07
2019-03-13T02:17:26.964Z,1.00
2019-03-13T02:19:53.280Z,1.10
2019-03-13T02:22:19.692Z,1.13
2019-03-13T02:24:46.069Z,1.10
2019-03-13T02:27:12.645Z,1.20
2019-03-13T02:29:38.962Z,1.27
2019-03-13T02:32:05.265Z,1.07
2019-03-13T02:34:31.486Z,1.30
2019-03-13T02:36:57.719Z,1.10
2019-03-13T02:39:23.970Z,1.37
2019-03-13T02:41:50.301Z,1.40
2019-03-13T02:44:16.569Z,1.40
2019-03-13T02:46:43.023Z,1.47
2019-03-13T02:49:09.178Z,1.10
2019-03-13T02:51:35.400Z,1.20
2019-03-13T02:54:01.671Z,1.10
2019-03-13T02:56:28.086Z,1.30
2019-03-13T02:58:54.449Z,1.40
2019-03-13T03:01:28.577Z,1.23
2019-03-13T03:03:56.754Z,1.30
2019-03-13T03:06:23.102Z,1.30
2019-03-13T03:08:49.476Z,1.10
2019-03-13T03:11:15.838Z,1.20
2019-03-13T03:13:42.073Z,1.20
2019-03-13T03:16:08.321Z,1.23
2019-03-13T03:18:34.553Z,1.30
2019-03-13T03:21:00.837Z,1.30
2019-03-13T03:23:27.052Z,1.20
2019-03-13T03:25:53.341Z,1.07
2019-03-13T03:28:19.950Z,1.17
2019-03-13T03:30:46.110Z,1.20
2019-03-13T03:33:12.330Z,1.00
2019-03-13T03:35:38.643Z,1.20
2019-03-13T03:38:05.023Z,1.10
2019-03-13T03:40:31.365Z,1.20
2019-03-13T03:42:57.587Z,1.50
2019-03-13T03:45:23.852Z,1.60
2019-03-13T03:47:50.252Z,1.60
2019-03-13T03:50:17.134Z,1.80
2019-03-13T03:52:43.474Z,1.80
2019-03-13T03:55:15.142Z,1.90
2019-03-13T03:57:41.410Z,2.00
2019-03-13T04:00:10.350Z,1.90
2019-03-13T04:02:36.781Z,1.93
2019-03-13T04:05:04.263Z,1.93
2019-03-13T04:07:30.586Z,2.30
2019-03-13T04:09:56.978Z,1.70
2019-03-13T04:12:23.226Z,1.60
2019-03-13T04:14:49.472Z,1.50
2019-03-13T04:17:15.693Z,1.50
2019-03-13T04:19:41.921Z,1.50
2019-03-13T04:22:08.059Z,1.50
2019-03-13T04:24:34.275Z,1.40
2019-03-13T04:27:00.625Z,1.60
2019-03-13T04:29:26.876Z,1.60
2019-03-13T04:31:53.103Z,1.70
2019-03-13T04:34:19.414Z,1.50
2019-03-13T04:36:45.719Z,1.83
2019-03-13T04:39:11.978Z,1.70
2019-03-13T04:41:38.281Z,1.83
2019-03-13T04:44:04.494Z,1.93
2019-03-13T04:46:30.671Z,1.90
2019-03-13T04:48:57.003Z,1.73
2019-03-13T04:51:23.125Z,2.00
2019-03-13T04:53:49.362Z,2.47
2019-03-13T04:56:15.504Z,2.60
2019-03-13T04:58:41.964Z,2.47
2019-03-13T05:01:08.126Z,2.60
2019-03-13T05:03:34.342Z,2.57
2019-03-13T05:06:01.198Z,2.40
2019-03-13T05:08:45.029Z,2.43
2019-03-13T05:11:04.534Z,3.07
2019-03-13T05:13:31.169Z,2.53
2019-03-13T05:15:57.537Z,2.20
2019-03-13T05:18:23.788Z,2.30
2019-03-13T05:20:50.014Z,2.33
2019-03-13T05:23:16.258Z,2.27
2019-03-13T05:25:42.611Z,1.87
2019-03-13T05:28:08.752Z,2.00
2019-03-13T05:30:34.928Z,1.60
2019-03-13T05:33:01.164Z,1.60
2019-03-13T05:35:27.361Z,1.63
2019-03-13T05:37:53.716Z,1.47
2019-03-13T05:40:19.962Z,1.60
2019-03-13T05:42:46.198Z,1.40
2019-03-13T05:45:12.720Z,1.70
2019-03-13T05:47:44.790Z,1.67
2019-03-13T05:50:17.536Z,1.54
2019-03-13T05:52:51.122Z,1.60
2019-03-13T05:55:18.494Z,1.87
2019-03-13T05:57:59.830Z,2.00
2019-03-13T06:00:30.092Z,1.80
2019-03-13T06:02:56.437Z,1.83
2019-03-13T06:05:25.641Z,1.90
2019-03-13T06:07:51.846Z,1.90
2019-03-13T06:10:18.229Z,2.17
2019-03-13T06:12:45.480Z,2.20
2019-03-13T06:15:17.488Z,1.90
2019-03-13T06:17:43.703Z,2.10
2019-03-13T06:20:13.033Z,2.00
2019-03-13T06:22:39.314Z,1.90
2019-03-13T06:25:07.859Z,1.83
2019-03-13T06:27:34.251Z,2.00
2019-03-13T06:30:00.603Z,1.83
2019-03-13T06:32:26.946Z,1.47
2019-03-13T06:34:53.205Z,1.90
2019-03-13T06:37:19.687Z,1.40
2019-03-13T06:39:46.068Z,1.70
2019-03-13T06:42:12.313Z,1.40
2019-03-13T06:44:38.444Z,1.50
2019-03-13T06:47:04.811Z,1.40
2019-03-13T06:49:31.153Z,2.03
2019-03-13T06:51:57.364Z,1.50
2019-03-13T06:54:23.598Z,1.50
2019-03-13T06:56:50.169Z,1.37
2019-03-13T06:59:18.532Z,1.50
2019-03-13T07:01:46.557Z,1.60
2019-03-13T07:04:29.936Z,1.40
2019-03-13T07:07:03.677Z,1.30
2019-03-13T07:09:33.860Z,1.40
2019-03-13T07:12:08.070Z,1.70
2019-03-13T07:14:38.995Z,1.40
2019-03-13T07:17:10.122Z,1.40
2019-03-13T07:19:47.127Z,1.53
2019-03-13T07:22:24.224Z,1.50
2019-03-13T07:24:58.162Z,1.43
2019-03-13T07:27:26.660Z,1.40
2019-03-13T07:29:57.414Z,1.40
2019-03-13T07:32:25.613Z,1.40
2019-03-13T07:34:54.109Z,1.30
2019-03-13T07:37:25.335Z,1.50
2019-03-13T07:39:57.256Z,1.60
2019-03-13T07:42:28.876Z,1.35
2019-03-13T07:48:09.774Z,1.40
2019-03-13T07:50:40.544Z,1.50
2019-03-13T07:53:29.966Z,1.70
2019-03-13T07:56:22.854Z,1.40
2019-03-13T07:59:03.063Z,1.40
2019-03-13T08:01:46.226Z,1.33
2019-03-13T08:04:23.197Z,1.40
2019-03-13T08:07:04.615Z,1.50
2019-03-13T08:09:35.900Z,1.57
2019-03-13T08:12:20.802Z,1.60
2019-03-13T08:15:04.264Z,1.67
2019-03-13T08:17:50.498Z,1.70
2019-03-13T08:20:32.797Z,1.90
2019-03-13T08:23:06.790Z,1.87
2019-03-13T08:25:52.050Z,2.07
2019-03-13T08:28:26.321Z,1.57
2019-03-13T08:31:06.353Z,1.40
2019-03-13T08:33:56.180Z,1.70
2019-03-13T08:36:30.180Z,1.60
2019-03-13T08:38:58.446Z,2.10
2019-03-13T08:41:26.570Z,1.70
2019-03-13T08:43:57.568Z,1.57
2019-03-13T08:46:34.501Z,1.80
2019-03-13T08:49:10.158Z,2.05
2019-03-13T08:51:41.049Z,1.90
2019-03-13T08:54:21.272Z,1.30
2019-03-13T08:56:53.315Z,1.60
2019-03-13T08:59:23.639Z,1.60
2019-03-13T09:01:51.619Z,2.27
2019-03-13T09:04:31.254Z,1.50
2019-03-13T09:07:20.702Z,1.23
2019-03-13T09:09:51.836Z,1.70
2019-03-13T09:12:19.882Z,1.47
2019-03-13T09:14:48.061Z,1.30
2019-03-13T09:17:29.290Z,1.93
2019-03-13T09:20:15.751Z,1.80
2019-03-13T09:22:43.877Z,1.30
2019-03-13T09:25:21.153Z,1.53
2019-03-13T09:28:05.818Z,1.37
2019-03-13T09:30:51.476Z,1.27
2019-03-13T09:33:36.121Z,1.25
2019-03-13T09:36:07.342Z,1.30
2019-03-13T09:41:41.714Z,1.20
2019-03-13T09:44:15.399Z,1.42
2019-03-13T09:47:02.868Z,1.20
2019-03-13T09:49:43.667Z,1.00
2019-03-13T09:52:13.977Z,0.98
2019-03-13T09:55:04.284Z,1.20
2019-03-13T09:57:44.541Z,1.37
2019-03-13T10:00:32.452Z,1.20
2019-03-13T10:03:11.338Z,1.20
2019-03-13T10:05:45.223Z,1.30
2019-03-13T10:08:22.606Z,1.10
2019-03-13T10:10:53.132Z,1.00
2019-03-13T10:13:22.095Z,1.20
2019-03-13T10:15:51.058Z,1.30
2019-03-13T10:18:19.401Z,1.55
2019-03-13T10:20:50.276Z,1.30
2019-03-13T10:23:28.248Z,1.10
2019-03-13T10:26:04.173Z,1.45
2019-03-13T10:28:35.947Z,1.22
2019-03-13T10:31:13.526Z,1.30
2019-03-13T10:34:07.188Z,1.22
2019-03-13T10:36:37.857Z,1.20
2019-03-13T10:39:11.484Z,1.20
2019-03-13T10:41:46.328Z,1.22
2019-03-13T10:44:17.780Z,1.40
2019-03-13T10:46:49.010Z,1.15
2019-03-13T10:49:32.614Z,1.30
2019-03-13T10:52:06.823Z,1.57
2019-03-13T10:54:54.803Z,1.32
2019-03-13T10:57:29.481Z,1.20
2019-03-13T11:00:00.405Z,1.30
2019-03-13T11:02:44.178Z,1.75
2019-03-13T11:05:16.957Z,1.50
2019-03-13T11:07:51.883Z,1.70
2019-03-13T11:10:20.155Z,1.50
2019-03-13T11:12:48.743Z,1.50
2019-03-13T11:15:19.568Z,1.40
2019-03-13T11:17:53.749Z,1.47
2019-03-13T11:20:27.979Z,1.82
2019-03-13T11:23:07.997Z,1.40
2019-03-13T11:25:41.230Z,1.60
2019-03-13T11:28:26.204Z,1.52
2019-03-13T11:30:54.361Z,1.70
2019-03-13T11:33:31.777Z,1.50
2019-03-13T11:35:59.929Z,1.50
2019-03-13T11:38:37.030Z,2.00
2019-03-13T11:41:14.011Z,1.55
2019-03-13T11:44:00.570Z,1.62
2019-03-13T11:46:33.588Z,1.45
2019-03-13T11:49:17.377Z,1.60
2019-03-13T11:52:04.549Z,1.70
2019-03-13T11:54:35.788Z,1.92
2019-03-13T11:57:13.124Z,1.75
2019-03-13T11:59:44.064Z,2.05
2019-03-13T12:02:30.842Z,1.87
2019-03-13T12:05:02.127Z,1.73
2019-03-13T12:07:43.785Z,1.63
2019-03-13T12:10:16.374Z,1.70
2019-03-13T12:12:53.583Z,1.90
2019-03-13T12:15:38.909Z,1.83
2019-03-13T12:18:19.310Z,1.97
2019-03-13T12:20:59.952Z,1.73
2019-03-13T12:23:28.367Z,1.77
2019-03-13T12:26:15.382Z,2.05
2019-03-13T12:29:00.687Z,1.97
2019-03-13T12:31:32.539Z,2.27
2019-03-13T12:34:07.024Z,2.10
2019-03-13T12:36:46.922Z,1.87
2019-03-13T12:39:35.332Z,1.80
2019-03-13T12:42:20.352Z,1.77
2019-03-13T12:44:55.170Z,2.30
2019-03-13T12:47:26.185Z,2.07
2019-03-13T12:50:03.391Z,2.27
2019-03-13T12:52:44.295Z,2.10
2019-03-13T12:55:18.675Z,1.77
2019-03-13T12:57:50.423Z,1.97
2019-03-13T13:00:35.758Z,2.03
2019-03-13T13:03:21.085Z,2.43
2019-03-13T13:06:06.368Z,2.17
2019-03-13T13:08:46.809Z,2.10
2019-03-13T13:11:26.698Z,2.30
2019-03-13T13:13:57.737Z,2.53
2019-03-13T13:16:40.195Z,2.30
2019-03-13T13:19:11.067Z,2.00
2019-03-13T13:21:39.621Z,2.17
2019-03-13T13:24:10.645Z,2.47
2019-03-13T13:26:40.900Z,2.03
2019-03-13T13:29:09.898Z,2.30
2019-03-13T13:31:36.325Z,2.30
2019-03-13T13:34:05.179Z,1.87
2019-03-13T13:36:31.561Z,1.97
2019-03-13T13:38:57.974Z,2.37
2019-03-13T13:41:24.977Z,2.17
2019-03-13T13:43:51.466Z,2.07
2019-03-13T13:46:23.965Z,2.23
2019-03-13T13:48:58.361Z,2.37
2019-03-13T13:51:26.864Z,2.20
2019-03-13T13:53:55.750Z,2.37
2019-03-13T13:56:26.170Z,1.96
2019-03-13T13:58:55.076Z,2.17
2019-03-13T14:01:21.362Z,1.60
2019-03-13T14:03:48.321Z,2.17
2019-03-13T14:06:14.763Z,1.90
2019-03-13T14:08:44.383Z,2.10
2019-03-13T14:11:16.870Z,1.77
2019-03-13T14:13:45.891Z,2.13
2019-03-13T14:16:12.182Z,1.83
2019-03-13T14:18:39.456Z,1.93
2019-03-13T14:21:07.546Z,1.50
2019-03-13T14:23:36.170Z,2.10
2019-03-13T14:26:06.749Z,1.77
2019-03-13T14:28:39.480Z,1.63
2019-03-13T14:31:10.276Z,2.07
2019-03-13T14:33:39.069Z,1.93
2019-03-13T14:36:09.928Z,2.70
2019-03-13T14:38:36.203Z,2.20
2019-03-13T14:41:05.635Z,2.00
2019-03-13T14:43:32.719Z,2.50
2019-03-13T14:45:58.967Z,2.20
2019-03-13T14:48:25.111Z,2.27
2019-03-13T14:50:55.998Z,2.10
2019-03-13T14:53:22.966Z,2.00
2019-03-13T14:55:51.495Z,1.70
2019-03-13T14:58:17.821Z,2.10
2019-03-13T15:00:49.177Z,2.15
2019-03-13T15:03:25.920Z,1.63
2019-03-13T15:05:56.370Z,1.82
2019-03-13T15:08:23.597Z,2.07
2019-03-13T15:10:50.016Z,1.97
2019-03-13T15:13:19.348Z,2.00
2019-03-13T15:15:49.597Z,2.10
2019-03-13T15:18:37.504Z,1.95
2019-03-13T15:21:04.094Z,2.10
2019-03-13T15:23:41.933Z,2.20
2019-03-13T15:26:15.966Z,2.10
2019-03-13T15:28:53.575Z,2.43
2019-03-13T15:31:20.364Z,2.20
2019-03-13T15:33:50.232Z,2.02
2019-03-13T15:36:22.606Z,2.23
2019-03-13T15:38:48.929Z,2.30
2019-03-13T15:41:19.722Z,1.93
2019-03-13T15:43:50.672Z,2.00
2019-03-13T15:46:19.632Z,2.00
2019-03-13T15:48:52.929Z,2.30
2019-03-13T15:51:19.137Z,2.50
2019-03-13T15:53:49.763Z,2.20
2019-03-13T15:56:21.216Z,1.98
2019-03-13T15:58:49.489Z,2.00
2019-03-13T16:01:22.590Z,2.23
2019-03-13T16:03:49.021Z,1.93
2019-03-13T16:06:15.439Z,2.13
2019-03-13T16:08:41.879Z,2.50
2019-03-13T16:11:11.879Z,2.30
2019-03-13T16:13:39.091Z,2.30
2019-03-13T16:16:06.052Z,1.70
2019-03-13T16:18:35.290Z,1.90
2019-03-13T16:21:04.975Z,2.27
2019-03-13T16:23:33.179Z,2.10
2019-03-13T16:26:00.313Z,2.13
2019-03-13T16:28:26.522Z,2.10
2019-03-13T16:30:55.066Z,2.00
2019-03-13T16:33:21.548Z,2.20
2019-03-13T16:35:52.118Z,2.20
2019-03-13T16:38:21.160Z,2.40
2019-03-13T16:40:49.070Z,2.10
2019-03-13T16:43:15.608Z,2.17
2019-03-13T16:45:42.156Z,2.00
2019-03-13T16:48:11.964Z,2.20
2019-03-13T16:50:38.543Z,1.60
2019-03-13T16:53:11.047Z,2.50
2019-03-13T16:55:37.858Z,2.30
2019-03-13T16:58:04.666Z,2.23
2019-03-13T17:00:33.583Z,3.93
2019-03-13T17:03:00.123Z,2.83
2019-03-13T17:05:29.037Z,8.80
2019-03-13T17:07:55.845Z,6.17
2019-03-13T17:10:25.144Z,3.60
2019-03-13T17:12:55.214Z,2.97
2019-03-13T17:15:24.918Z,2.83
2019-03-13T17:17:52.089Z,2.60
2019-03-13T17:20:27.284Z,2.90
2019-03-13T17:22:58.591Z,2.57
2019-03-13T17:25:25.010Z,2.13
2019-03-13T17:27:52.129Z,2.30
2019-03-13T17:30:25.993Z,2.40
2019-03-13T17:32:52.967Z,1.90
2019-03-13T17:35:19.396Z,2.40
2019-03-13T17:37:45.675Z,2.30
2019-03-13T17:40:24.038Z,2.37
2019-03-13T17:42:53.921Z,2.10
2019-03-13T17:45:21.357Z,2.33
2019-03-13T17:47:47.952Z,2.03
2019-03-13T17:50:18.169Z,2.10
2019-03-13T17:52:44.676Z,3.10
2019-03-13T17:55:12.902Z,2.20
2019-03-13T17:57:39.292Z,2.20
2019-03-13T18:00:12.913Z,1.90
2019-03-13T18:02:42.846Z,2.83
2019-03-13T18:05:16.420Z,2.53
2019-03-13T18:07:43.192Z,2.17
2019-03-13T18:10:15.350Z,2.40
2019-03-13T18:12:41.687Z,2.57
2019-03-13T18:15:09.921Z,2.33
2019-03-13T18:17:36.178Z,2.30
2019-03-13T18:20:05.561Z,2.30
2019-03-13T18:22:31.859Z,2.30
2019-03-13T18:24:58.240Z,2.40
2019-03-13T18:27:24.427Z,2.37
2019-03-13T18:29:50.754Z,2.80
2019-03-13T18:32:17.138Z,2.40
2019-03-13T18:34:43.568Z,2.30
2019-03-13T18:37:10.077Z,2.50
2019-03-13T18:39:36.541Z,3.20
2019-03-13T18:42:02.988Z,4.03
2019-03-13T18:44:29.167Z,2.60
2019-03-13T18:46:55.660Z,2.57
2019-03-13T18:49:22.120Z,2.72
2019-03-13T18:51:48.466Z,3.00
2019-03-13T18:54:14.719Z,3.30
2019-03-13T18:56:41.145Z,3.17
2019-03-13T18:59:11.972Z,3.17
2019-03-13T19:01:42.785Z,2.80
2019-03-13T19:04:09.231Z,3.27
2019-03-13T19:06:40.695Z,2.97
2019-03-13T19:09:07.204Z,3.10
2019-03-13T19:11:37.974Z,3.50
2019-03-13T19:14:09.873Z,3.03
2019-03-13T19:16:42.317Z,2.99
2019-03-13T19:19:08.727Z,2.97
2019-03-13T19:21:43.636Z,2.70
2019-03-13T19:24:09.501Z,2.77
2019-03-13T19:26:36.198Z,2.90
2019-03-13T19:29:03.251Z,2.97
2019-03-13T19:31:31.784Z,2.80
2019-03-13T19:33:58.735Z,2.53
2019-03-13T19:36:27.812Z,2.90
2019-03-13T19:38:55.600Z,2.50
2019-03-13T19:41:22.371Z,2.77
2019-03-13T19:43:53.117Z,2.73
2019-03-13T19:46:19.546Z,2.50
2019-03-13T19:48:45.870Z,2.73
2019-03-13T19:51:12.208Z,2.50
2019-03-13T19:53:41.754Z,2.40
2019-03-13T19:56:06.843Z,2.40
2019-03-13T19:58:33.184Z,2.43
2019-03-13T20:01:00.484Z,2.53
2019-03-13T20:03:27.076Z,2.57
2019-03-13T20:05:53.475Z,2.47
2019-03-13T20:08:19.967Z,2.70
2019-03-13T20:10:46.189Z,3.73
2019-03-13T20:13:12.350Z,8.90
2019-03-13T20:15:38.679Z,6.73
2019-03-13T20:18:05.147Z,12.93
2019-03-13T20:20:31.552Z,3.10
2019-03-13T20:23:03.462Z,2.77
2019-03-13T20:25:29.887Z,2.50
2019-03-13T20:27:56.039Z,2.33
2019-03-13T20:30:22.900Z,2.10
2019-03-13T20:32:49.328Z,2.50
2019-03-13T20:35:15.835Z,2.30
2019-03-13T20:37:42.284Z,2.50
2019-03-13T20:40:21.084Z,2.40
2019-03-13T20:42:47.635Z,1.97
2019-03-13T20:45:16.921Z,2.33
2019-03-13T20:47:43.191Z,1.80
2019-03-13T20:50:09.756Z,2.23
2019-03-13T20:52:36.117Z,2.00
2019-03-13T20:55:03.145Z,1.90
2019-03-13T20:57:29.407Z,1.83
2019-03-13T20:59:57.660Z,2.00
2019-03-13T21:02:23.992Z,2.13
2019-03-13T21:04:50.366Z,1.97
2019-03-13T21:07:16.661Z,1.97
2019-03-13T21:09:42.852Z,1.90
2019-03-13T21:12:09.103Z,1.83
2019-03-13T21:14:36.144Z,1.90
2019-03-13T21:17:02.767Z,2.00
2019-03-13T21:19:28.935Z,2.20
2019-03-13T21:21:55.084Z,2.20
2019-03-13T21:24:21.209Z,2.03
2019-03-13T21:26:49.310Z,2.00
2019-03-13T21:29:15.614Z,2.07
2019-03-13T21:31:42.060Z,2.37
2019-03-13T21:34:08.260Z,2.20
2019-03-13T21:36:36.562Z,2.53
2019-03-13T21:39:16.076Z,2.47
2019-03-13T21:41:52.546Z,2.63
2019-03-13T21:44:42.824Z,2.60
2019-03-13T21:47:22.747Z,2.87
2019-03-13T21:50:50.394Z,3.00
2019-03-13T21:52:32.367Z,3.07
2019-03-13T21:55:06.362Z,2.80
2019-03-13T21:57:39.603Z,2.75
2019-03-13T22:00:26.123Z,3.00
2019-03-13T22:03:03.886Z,2.77
2019-03-13T22:05:32.029Z,3.77
2019-03-13T22:08:01.844Z,3.17
2019-03-13T22:10:31.214Z,3.27
2019-03-13T22:12:57.938Z,3.70
2019-03-13T22:15:33.348Z,3.37
2019-03-13T22:18:04.383Z,3.10
2019-03-13T22:20:36.691Z,3.70
2019-03-13T22:23:03.081Z,3.20
2019-03-13T22:25:33.705Z,3.50
2019-03-13T22:28:06.962Z,3.07
2019-03-13T22:30:44.763Z,3.67
2019-03-13T22:33:12.368Z,3.30
2019-03-13T22:35:43.327Z,3.30
2019-03-13T22:38:14.996Z,3.43
2019-03-13T22:40:45.746Z,3.27
2019-03-13T22:43:12.326Z,3.40
2019-03-13T22:45:43.485Z,3.27
2019-03-13T22:48:11.676Z,2.67
2019-03-13T22:50:40.599Z,2.70
2019-03-13T22:53:06.960Z,3.17
2019-03-13T22:58:25.662Z,3.07
2019-03-13T23:01:02.504Z,2.60
2019-03-13T23:03:29.504Z,3.03
2019-03-13T23:05:56.301Z,3.03
2019-03-13T23:08:32.803Z,3.07
2019-03-13T23:11:05.452Z,2.20
2019-03-13T23:13:35.407Z,1.90
2019-03-13T23:16:08.946Z,1.80
2019-03-13T23:18:36.120Z,1.90
2019-03-13T23:21:02.581Z,1.87
2019-03-13T23:23:31.611Z,1.60
2019-03-13T23:26:00.525Z,1.57
2019-03-13T23:28:30.319Z,1.87
2019-03-13T23:30:57.549Z,1.50
2019-03-13T23:33:27.336Z,1.80
2019-03-13T23:35:54.011Z,1.70
2019-03-13T23:38:22.260Z,1.30
2019-03-13T23:40:54.195Z,1.67
2019-03-13T23:43:25.649Z,1.50
2019-03-13T23:45:58.486Z,1.50
2019-03-13T23:48:25.047Z,1.37
2019-03-13T23:50:55.600Z,1.30
2019-03-13T23:53:22.085Z,1.50
2019-03-13T23:55:52.779Z,1.40
2019-03-13T23:58:21.772Z,1.67
